Log in

Login to your account

Username *
Password *
Remember Me

Vous êtes passioné(e)s d'aviation ? Vous êtes interressé(e)s par une formation au pilotage ? Vous souhaitez offrir ou vous offrir un vol de découverte ?

Notre équipe dynamique vous accueille dans un environnement de vol exceptionel

Retrouvez toutes les informations qui peuvent vous interresser en parcourant notre site. N'hésitez pas à nous contacter si vous souhaitez en savoir plus ! 

Retrouvez nos horaires d'ouverture ici

NOTRE LIGNE TELEPHONIQUE EST HORS SERVICE. POUR JOINDRE LE SECRETARIAT MERCI DE COMPOSER LE 07 68 81 20 63.

⇓ RETROUVEZ TOUTES NOS ACTUS ET EVENEMENTS CI DESSOUS ⇓

 

IMG 7090 20

Nous contacter

 Téléphone : +33 (0)4 79 54 41 81

NOTRE LIGNE TELEPHONIQUE EST HORS SERVICE. POUR JOINDRE LE SECRETARIAT MERCI DE COMPOSER LE 07 68 81 20 63.

Coordonnées détaillées et accès : cliquez ici

facebook 770688 960 720  logo instagram large

[source: ADDS]
METAR / TAF
LFLB 011400Z AUTO 20011KT 4300 -RA BR SCT009 BKN024 BKN031 12/11 Q1022 BECMG 9999 NSW =
TAF LFLB 010800Z 0109/0209 19007KT 9999 OVC060 TEMPO 0109/0114 4000 RA TEMPO 0114/0120 -RA PROB30 TEMPO 0203/0206 1500 BCFG

SR / SS: 05:34 / 17:17 UTC (Lever/Coucher du soleil le 2022-10-01)
JSN Boot template designed by JoomlaShine.com